createdAt,value
2018-09-03T00:00:33.925Z,99002.98
2018-09-03T00:03:38.848Z,99003.66
2018-09-03T00:06:43.789Z,98994.55
2018-09-03T00:09:48.748Z,98989.87
2018-09-03T00:12:53.681Z,98988.89
2018-09-03T00:15:58.604Z,98979.98
2018-09-03T00:19:03.552Z,98974.94
2018-09-03T00:22:08.480Z,98975.03
2018-09-03T00:25:13.422Z,98973.47
2018-09-03T00:28:18.346Z,98965.95
2018-09-03T00:31:29.014Z,98966.19
2018-09-03T00:34:39.640Z,98970.96
2018-09-03T00:37:50.440Z,98970.70
2018-09-03T00:41:01.210Z,98976.45
2018-09-03T00:44:11.843Z,98985.16
2018-09-03T00:47:16.877Z,98990.98
2018-09-03T00:50:21.826Z,98986.83
2018-09-03T00:53:26.835Z,98984.73
2018-09-03T00:56:31.789Z,98986.77
2018-09-03T00:59:36.734Z,98975.83
2018-09-03T01:02:41.656Z,98978.69
2018-09-03T01:05:46.576Z,98985.57
2018-09-03T01:08:51.486Z,98998.45
2018-09-03T01:11:56.466Z,98999.77
2018-09-03T01:15:01.406Z,99005.61
2018-09-03T01:18:06.322Z,99010.30
2018-09-03T01:21:11.550Z,99014.69
2018-09-03T01:24:16.457Z,99018.73
2018-09-03T01:27:21.354Z,99025.37
2018-09-03T01:30:26.324Z,99031.95
2018-09-03T01:33:31.237Z,99034.45
2018-09-03T01:36:36.146Z,99029.12
2018-09-03T01:39:41.084Z,99030.41
2018-09-03T01:42:46.013Z,99020.50
2018-09-03T01:45:50.930Z,99024.96
2018-09-03T01:48:55.909Z,99023.75
2018-09-03T01:52:00.821Z,99022.12
2018-09-03T01:55:05.782Z,99024.89
2018-09-03T01:58:10.696Z,99029.28
2018-09-03T02:01:15.615Z,99027.16
2018-09-03T02:04:20.534Z,99021.65
2018-09-03T02:07:25.449Z,99021.65
2018-09-03T02:10:30.370Z,99020.09
2018-09-03T02:13:35.316Z,99007.11
2018-09-03T02:16:40.240Z,99002.98
2018-09-03T02:19:45.165Z,99006.79
2018-09-03T02:22:50.072Z,99012.98
2018-09-03T02:25:54.993Z,99008.48
2018-09-03T02:28:59.901Z,99007.78
2018-09-03T02:32:05.053Z,99007.30
2018-09-03T02:35:09.973Z,98998.94
2018-09-03T02:38:14.881Z,98999.45
2018-09-03T02:41:19.788Z,98995.55
2018-09-03T02:44:24.689Z,98991.01
2018-09-03T02:47:29.645Z,98986.45
2018-09-03T02:50:34.552Z,98979.64
2018-09-03T02:53:39.476Z,98978.50
2018-09-03T02:56:44.401Z,98973.09
2018-09-03T02:59:49.373Z,98963.77
2018-09-03T03:02:55.632Z,98962.79
2018-09-03T03:06:00.569Z,98958.80
2018-09-03T03:09:06.936Z,98953.52
2018-09-03T03:12:13.249Z,98953.84
2018-09-03T03:15:18.178Z,98955.14
2018-09-03T03:18:23.121Z,98949.95
2018-09-03T03:21:28.129Z,98943.47
2018-09-03T03:24:33.101Z,98942.73
2018-09-03T03:27:38.032Z,98944.77
2018-09-03T03:30:43.009Z,98939.71
2018-09-03T03:33:47.956Z,98936.55
2018-09-03T03:36:52.880Z,98929.58
2018-09-03T03:39:57.817Z,98929.20
2018-09-03T03:43:02.749Z,98933.66
2018-09-03T03:46:07.653Z,98935.84
2018-09-03T03:49:12.653Z,98930.81
2018-09-03T03:52:17.593Z,98919.78
2018-09-03T03:55:22.549Z,98924.70
2018-09-03T03:58:27.507Z,98918.31
2018-09-03T04:01:32.451Z,98924.86
2018-09-03T04:04:37.367Z,98925.27
2018-09-03T04:07:42.305Z,98916.52
2018-09-03T04:10:47.212Z,98909.88
2018-09-03T04:13:52.113Z,98907.70
2018-09-03T04:16:57.022Z,98913.26
2018-09-03T04:20:03.018Z,98915.84
2018-09-03T04:23:07.998Z,98922.98
2018-09-03T04:26:12.872Z,98932.72
2018-09-03T04:29:17.857Z,98927.31
2018-09-03T04:32:22.973Z,98922.85
2018-09-03T04:35:27.900Z,98919.04
2018-09-03T04:38:32.870Z,98915.72
2018-09-03T04:41:38.153Z,98917.49
2018-09-03T04:44:43.072Z,98917.42
2018-09-03T04:47:47.981Z,98909.58
2018-09-03T04:50:52.888Z,98909.73
2018-09-03T04:53:57.825Z,98909.89
2018-09-03T04:57:02.763Z,98909.16
2018-09-03T05:00:07.721Z,98911.05
2018-09-03T05:03:12.649Z,98910.23
2018-09-03T05:06:17.592Z,98909.81
2018-09-03T05:09:22.831Z,98906.81
2018-09-03T05:12:27.769Z,98909.03
2018-09-03T05:15:32.713Z,98912.91
2018-09-03T05:18:37.661Z,98915.75
2018-09-03T05:21:42.581Z,98906.42
2018-09-03T05:24:47.513Z,98910.40
2018-09-03T05:27:52.424Z,98920.27
2018-09-03T05:30:57.376Z,98922.95
2018-09-03T05:34:02.277Z,98920.13
2018-09-03T05:37:07.196Z,98918.70
2018-09-03T05:40:12.137Z,98915.28
2018-09-03T05:43:17.179Z,98917.50
2018-09-03T05:46:22.018Z,98920.88
2018-09-03T05:49:26.946Z,98933.12
2018-09-03T05:52:31.878Z,98930.67
2018-09-03T05:55:36.845Z,98928.27
2018-09-03T05:58:41.842Z,98928.09
2018-09-03T06:01:46.818Z,98929.39
2018-09-03T06:04:51.808Z,98926.37
2018-09-03T06:07:56.729Z,98929.86
2018-09-03T06:11:01.680Z,98927.45
2018-09-03T06:14:06.602Z,98931.64
2018-09-03T06:17:11.682Z,98937.30
2018-09-03T06:20:16.614Z,98927.25
2018-09-03T06:23:21.609Z,98935.03
2018-09-03T06:26:26.548Z,98930.97
2018-09-03T06:29:31.497Z,98930.97
2018-09-03T06:32:36.409Z,98929.86
2018-09-03T06:35:41.336Z,98932.22
2018-09-03T06:38:46.273Z,98925.63
2018-09-03T06:41:51.218Z,98935.92
2018-09-03T06:44:56.201Z,98924.00
2018-09-03T06:48:01.138Z,98925.31
2018-09-03T06:51:06.110Z,98922.06
2018-09-03T06:54:11.081Z,98914.54
2018-09-03T06:57:16.052Z,98918.24
2018-09-03T07:00:21.018Z,98923.94
2018-09-03T07:03:26.045Z,98920.34
2018-09-03T07:06:30.993Z,98922.53
2018-09-03T07:09:35.947Z,98925.87
2018-09-03T07:12:41.325Z,98916.25
2018-09-03T07:15:46.272Z,98914.66
2018-09-03T07:18:51.305Z,98916.02
2018-09-03T07:21:56.120Z,98906.13
2018-09-03T07:25:01.069Z,98905.42
2018-09-03T07:28:05.972Z,98909.41
2018-09-03T07:31:10.874Z,98901.66
2018-09-03T07:34:15.785Z,98902.17
2018-09-03T07:37:20.714Z,98912.77
2018-09-03T07:40:25.626Z,98906.07
2018-09-03T07:43:30.556Z,98901.08
2018-09-03T07:46:35.475Z,98904.17
2018-09-03T07:49:40.400Z,98901.05
2018-09-03T07:52:45.318Z,98900.45
2018-09-03T07:55:50.261Z,98892.70
2018-09-03T07:58:55.165Z,98892.13
2018-09-03T08:02:00.129Z,98899.53
2018-09-03T08:05:05.643Z,98897.92
2018-09-03T08:08:10.572Z,98898.77
2018-09-03T08:11:15.528Z,98903.17
2018-09-03T08:14:20.473Z,98902.56
2018-09-03T08:17:25.577Z,98905.88
2018-09-03T08:20:30.745Z,98897.67
2018-09-03T08:23:35.686Z,98898.81
2018-09-03T08:26:40.660Z,98906.64
2018-09-03T08:29:45.733Z,98891.19
2018-09-03T08:32:51.467Z,98877.06
2018-09-03T08:35:56.937Z,98876.73
2018-09-03T08:39:01.928Z,98880.67
2018-09-03T08:42:06.970Z,98882.89
2018-09-03T08:45:11.937Z,98883.00
2018-09-03T08:48:16.940Z,98888.35
2018-09-03T08:51:21.893Z,98879.23
2018-09-03T08:54:26.873Z,98888.73
2018-09-03T08:57:31.857Z,98880.18
2018-09-03T09:00:36.804Z,98888.00
2018-09-03T09:03:43.015Z,98883.20
2018-09-03T09:06:48.124Z,98877.22
2018-09-03T09:09:53.191Z,98870.41
2018-09-03T09:12:58.140Z,98874.43
2018-09-03T09:16:03.080Z,98877.36
2018-09-03T09:19:08.022Z,98883.56
2018-09-03T09:22:12.942Z,98869.86
2018-09-03T09:25:17.873Z,98868.05
2018-09-03T09:28:22.792Z,98868.48
2018-09-03T09:31:27.737Z,98858.36
2018-09-03T09:34:32.667Z,98857.25
2018-09-03T09:37:37.605Z,98853.89
2018-09-03T09:40:42.541Z,98842.81
2018-09-03T09:43:47.509Z,98840.58
2018-09-03T09:46:52.452Z,98836.05
2018-09-03T09:49:57.473Z,98830.16
2018-09-03T09:53:02.404Z,98835.48
2018-09-03T09:56:07.419Z,98835.95
2018-09-03T09:59:12.378Z,98842.80
2018-09-03T10:02:17.361Z,98839.03
2018-09-03T10:05:22.318Z,98833.81
2018-09-03T10:08:27.268Z,98837.85
2018-09-03T10:11:32.281Z,98835.30
2018-09-03T10:14:37.213Z,98831.40
2018-09-03T10:17:42.190Z,98835.04
2018-09-03T10:20:47.193Z,98836.58
2018-09-03T10:23:52.278Z,98835.81
2018-09-03T10:26:57.249Z,98830.21
2018-09-03T10:30:02.241Z,98827.43
2018-09-03T10:33:07.216Z,98826.41
2018-09-03T10:36:12.184Z,98815.66
2018-09-03T10:39:17.696Z,98821.09
2018-09-03T10:42:24.523Z,98824.56
2018-09-03T10:45:29.481Z,98818.69
2018-09-03T10:48:34.461Z,98818.56
2018-09-03T10:51:39.542Z,98818.20
2018-09-03T10:54:44.764Z,98814.90
2018-09-03T10:57:49.788Z,98813.63
2018-09-03T11:00:54.736Z,98808.22
2018-09-03T11:03:59.752Z,98800.75
2018-09-03T11:07:04.831Z,98806.11
2018-09-03T11:10:09.784Z,98807.46
2018-09-03T11:13:14.784Z,98805.25
2018-09-03T11:16:19.718Z,98799.66
2018-09-03T11:19:27.006Z,98798.56
2018-09-03T11:22:32.009Z,98788.46
2018-09-03T11:25:36.946Z,98788.94
2018-09-03T11:28:41.934Z,98782.39
2018-09-03T11:31:46.877Z,98786.38
2018-09-03T11:34:51.840Z,98784.38
2018-09-03T11:37:56.804Z,98781.19
2018-09-03T11:41:01.781Z,98781.48
2018-09-03T11:44:07.179Z,98788.05
2018-09-03T11:47:12.174Z,98789.67
2018-09-03T11:50:17.769Z,98791.69
2018-09-03T11:53:22.725Z,98783.00
2018-09-03T11:56:27.678Z,98785.05
2018-09-03T11:59:32.636Z,98781.59
2018-09-03T12:02:37.609Z,98775.66
2018-09-03T12:05:42.593Z,98775.44
2018-09-03T12:08:47.579Z,98774.31
2018-09-03T12:11:52.550Z,98780.29
2018-09-03T12:15:00.262Z,98773.73
2018-09-03T12:18:05.290Z,98769.36
2018-09-03T12:21:11.334Z,98763.11
2018-09-03T12:24:16.209Z,98768.32
2018-09-03T12:27:21.587Z,98770.76
2018-09-03T12:30:26.554Z,98775.16
2018-09-03T12:33:31.927Z,98773.78
2018-09-03T12:36:36.909Z,98774.12
2018-09-03T12:39:42.125Z,98770.17
2018-09-03T12:42:47.414Z,98772.86
2018-09-03T12:45:58.501Z,98770.41
2018-09-03T12:49:04.031Z,98765.20
2018-09-03T12:52:09.390Z,98761.75
2018-09-03T12:55:14.956Z,98761.75
2018-09-03T12:58:20.022Z,98762.19
2018-09-03T13:01:25.022Z,98759.69
2018-09-03T13:04:30.176Z,98763.36
2018-09-03T13:07:35.085Z,98762.59
2018-09-03T13:10:40.154Z,98751.92
2018-09-03T13:13:45.100Z,98755.27
2018-09-03T13:16:50.038Z,98756.13
2018-09-03T13:19:54.988Z,98755.60
2018-09-03T13:22:59.988Z,98753.12
2018-09-03T13:26:04.995Z,98753.52
2018-09-03T13:29:09.934Z,98742.16
2018-09-03T13:32:15.118Z,98743.02
2018-09-03T13:35:20.367Z,98740.48
2018-09-03T13:38:25.356Z,98739.70
2018-09-03T13:41:30.361Z,98739.97
2018-09-03T13:44:35.372Z,98735.63
2018-09-03T13:47:40.406Z,98734.50
2018-09-03T13:50:45.875Z,98733.35
2018-09-03T13:53:50.856Z,98736.24
2018-09-03T13:56:56.142Z,98732.27
2018-09-03T14:00:01.161Z,98732.44
2018-09-03T14:03:06.649Z,98725.48
2018-09-03T14:06:11.682Z,98721.91
2018-09-03T14:09:16.959Z,98724.34
2018-09-03T14:12:22.197Z,98720.87
2018-09-03T14:15:27.233Z,98722.25
2018-09-03T14:18:32.342Z,98720.86
2018-09-03T14:21:37.403Z,98722.19
2018-09-03T14:24:42.359Z,98721.36
2018-09-03T14:27:47.377Z,98723.11
2018-09-03T14:30:52.337Z,98713.63
2018-09-03T14:33:58.256Z,98716.47
2018-09-03T14:37:03.389Z,98709.87
2018-09-03T14:40:08.340Z,98716.66
2018-09-03T14:43:13.562Z,98716.22
2018-09-03T14:46:18.917Z,98710.58
2018-09-03T14:49:24.406Z,98714.91
2018-09-03T14:52:29.386Z,98711.22
2018-09-03T14:55:34.371Z,98707.42
2018-09-03T14:58:39.376Z,98710.81
2018-09-03T15:01:44.826Z,98707.59
2018-09-03T15:04:49.879Z,98708.03
2018-09-03T15:07:54.853Z,98711.80
2018-09-03T15:10:59.874Z,98706.27
2018-09-03T15:14:05.250Z,98709.40
2018-09-03T15:17:10.244Z,98706.02
2018-09-03T15:20:15.237Z,98706.00
2018-09-03T15:23:20.263Z,98705.52
2018-09-03T15:26:25.482Z,98708.47
2018-09-03T15:29:30.453Z,98701.66
2018-09-03T15:32:35.604Z,98706.62
2018-09-03T15:35:40.619Z,98710.33
2018-09-03T15:38:45.669Z,98703.78
2018-09-03T15:41:50.652Z,98702.73
2018-09-03T15:44:55.712Z,98704.45
2018-09-03T15:48:00.766Z,98707.48
2018-09-03T15:51:05.927Z,98700.88
2018-09-03T15:54:11.147Z,98700.55
2018-09-03T15:57:16.069Z,98703.33
2018-09-03T16:00:21.042Z,98706.51
2018-09-03T16:03:26.025Z,98706.30
2018-09-03T16:06:31.025Z,98703.84
2018-09-03T16:09:36.006Z,98704.43
2018-09-03T16:12:41.080Z,98702.09
2018-09-03T16:15:46.145Z,98705.83
2018-09-03T16:18:51.151Z,98704.59
2018-09-03T16:21:56.192Z,98703.66
2018-09-03T16:25:01.228Z,98708.97
2018-09-03T16:28:06.317Z,98722.05
2018-09-03T16:31:11.291Z,98712.83
2018-09-03T16:34:16.299Z,98711.95
2018-09-03T16:37:21.267Z,98712.16
2018-09-03T16:40:26.212Z,98710.22
2018-09-03T16:43:31.227Z,98712.78
2018-09-03T16:46:36.190Z,98717.26
2018-09-03T16:49:41.141Z,98715.13
2018-09-03T16:52:46.230Z,98721.29
2018-09-03T16:55:51.225Z,98723.91
2018-09-03T16:58:56.177Z,98725.28
2018-09-03T17:02:01.186Z,98725.36
2018-09-03T17:05:06.343Z,98722.67
2018-09-03T17:08:11.453Z,98730.72
2018-09-03T17:11:16.273Z,98726.02
2018-09-03T17:14:21.254Z,98726.02
2018-09-03T17:17:26.210Z,98724.41
2018-09-03T17:20:31.249Z,98728.87
2018-09-03T17:23:36.137Z,98727.35
2018-09-03T17:26:41.140Z,98729.91
2018-09-03T17:29:46.209Z,98729.41
2018-09-03T17:32:51.224Z,98735.02
2018-09-03T17:35:56.144Z,98737.61
2018-09-03T17:39:01.118Z,98733.49
2018-09-03T17:42:06.073Z,98734.61
2018-09-03T17:45:11.052Z,98733.58
2018-09-03T17:48:16.023Z,98736.14
2018-09-03T17:51:21.005Z,98742.40
2018-09-03T17:54:26.008Z,98745.23
2018-09-03T17:57:31.081Z,98746.64
2018-09-03T18:00:36.009Z,98752.94
2018-09-03T18:03:40.974Z,98752.45
2018-09-03T18:06:45.948Z,98758.58
2018-09-03T18:09:50.860Z,98764.53
2018-09-03T18:12:55.784Z,98763.87
2018-09-03T18:16:00.782Z,98764.78
2018-09-03T18:19:05.848Z,98764.05
2018-09-03T18:22:10.801Z,98758.52
2018-09-03T18:25:15.728Z,98761.35
2018-09-03T18:28:20.729Z,98764.03
2018-09-03T18:31:25.648Z,98770.09
2018-09-03T18:34:30.720Z,98764.10
2018-09-03T18:37:35.705Z,98768.08
2018-09-03T18:40:40.650Z,98768.14
2018-09-03T18:43:45.633Z,98766.73
2018-09-03T18:46:50.695Z,98771.72
2018-09-03T18:50:13.352Z,98777.45
2018-09-03T18:53:19.195Z,98774.98
2018-09-03T18:56:24.146Z,98779.50
2018-09-03T18:59:29.118Z,98780.27
2018-09-03T19:02:34.187Z,98782.39
2018-09-03T19:05:39.161Z,98778.39
2018-09-03T19:08:44.121Z,98777.84
2018-09-03T19:11:49.102Z,98780.69
2018-09-03T19:14:54.053Z,98776.00
2018-09-03T19:17:59.024Z,98777.84
2018-09-03T19:21:04.011Z,98786.08
2018-09-03T19:24:09.149Z,98784.91
2018-09-03T19:27:14.168Z,98788.80
2018-09-03T19:30:19.181Z,98784.20
2018-09-03T19:33:24.146Z,98789.86
2018-09-03T19:36:29.125Z,98790.52
2018-09-03T19:39:34.105Z,98787.14
2018-09-03T19:42:39.117Z,98794.12
2018-09-03T19:45:44.080Z,98790.03
2018-09-03T19:48:49.102Z,98791.84
2018-09-03T19:51:54.072Z,98794.33
2018-09-03T19:54:58.997Z,98790.54
2018-09-03T19:58:04.165Z,98798.66
2018-09-03T20:01:09.136Z,98788.13
2018-09-03T20:04:14.458Z,98786.87
2018-09-03T20:07:19.535Z,98788.66
2018-09-03T20:10:24.513Z,98787.36
2018-09-03T20:13:29.529Z,98788.13
2018-09-03T20:16:34.528Z,98784.58
2018-09-03T20:19:39.481Z,98788.26
2018-09-03T20:22:44.713Z,98788.45
2018-09-03T20:25:49.909Z,98788.30
2018-09-03T20:28:54.858Z,98791.05
2018-09-03T20:32:00.021Z,98793.50
2018-09-03T20:35:05.285Z,98789.64
2018-09-03T20:38:10.674Z,98794.73
2018-09-03T20:41:15.652Z,98785.27
2018-09-03T20:44:20.614Z,98784.78
2018-09-03T20:47:25.531Z,98781.72
2018-09-03T20:50:30.497Z,98784.39
2018-09-03T20:53:35.448Z,98788.48
2018-09-03T20:56:40.492Z,98785.42
2018-09-03T20:59:45.401Z,98783.24
2018-09-03T21:02:50.312Z,98780.64
2018-09-03T21:05:55.289Z,98773.79
2018-09-03T21:09:00.196Z,98778.50
2018-09-03T21:12:05.199Z,98774.94
2018-09-03T21:15:10.122Z,98777.89
2018-09-03T21:18:15.058Z,98776.28
2018-09-03T21:21:19.996Z,98780.55
2018-09-03T21:24:24.962Z,98782.64
2018-09-03T21:27:29.880Z,98780.73
2018-09-03T21:30:34.803Z,98786.36
2018-09-03T21:33:39.741Z,98781.56
2018-09-03T21:36:44.637Z,98780.80
2018-09-03T21:39:49.572Z,98780.13
2018-09-03T21:42:54.481Z,98776.00
2018-09-03T21:45:59.429Z,98780.39
2018-09-03T21:49:04.365Z,98775.58
2018-09-03T21:52:09.321Z,98782.03
2018-09-03T21:55:14.236Z,98783.34
2018-09-03T22:02:11.836Z,98783.48
2018-09-03T22:05:16.783Z,98780.69
2018-09-03T22:08:21.751Z,98780.28
2018-09-03T22:11:26.725Z,98782.47
2018-09-03T22:14:31.699Z,98777.22
2018-09-03T22:17:36.630Z,98782.60
2018-09-03T22:20:41.600Z,98784.24
2018-09-03T22:23:46.549Z,98783.16
2018-09-03T22:26:51.649Z,98775.23
2018-09-03T22:29:56.628Z,98774.05
2018-09-03T22:33:01.588Z,98773.72
2018-09-03T22:36:06.529Z,98772.30
2018-09-03T22:39:11.797Z,98770.70
2018-09-03T22:42:16.809Z,98775.66
2018-09-03T22:45:21.757Z,98770.91
2018-09-03T22:48:26.705Z,98769.75
2018-09-03T22:51:31.662Z,98772.89
2018-09-03T22:54:36.620Z,98767.89
2018-09-03T22:57:41.553Z,98764.38
2018-09-03T23:00:46.468Z,98764.29
2018-09-03T23:03:51.420Z,98769.41
2018-09-03T23:06:56.360Z,98770.93
2018-09-03T23:10:01.383Z,98774.41
2018-09-03T23:13:06.325Z,98770.64
2018-09-03T23:16:11.262Z,98764.98
2018-09-03T23:19:16.188Z,98768.75
2018-09-03T23:22:21.127Z,98768.45
2018-09-03T23:25:26.061Z,98769.50
2018-09-03T23:28:31.005Z,98758.94
2018-09-03T23:31:35.939Z,98764.22
2018-09-03T23:34:40.962Z,98760.24
2018-09-03T23:37:45.939Z,98759.98
2018-09-03T23:40:50.893Z,98757.52
2018-09-03T23:43:55.842Z,98753.04
2018-09-03T23:47:00.776Z,98749.64
2018-09-03T23:50:05.734Z,98747.38
2018-09-03T23:53:10.773Z,98746.09
2018-09-03T23:56:15.717Z,98744.16
2018-09-03T23:59:20.725Z,98744.36
